createdAt,value
2023-05-04T00:00:17.352Z,15.68
2023-05-04T00:03:04.627Z,14.25
2023-05-04T00:05:33.125Z,14.30
2023-05-04T00:08:00.304Z,15.07
2023-05-04T00:10:28.351Z,14.05
2023-05-04T00:12:55.620Z,14.98
2023-05-04T00:15:23.556Z,14.80
2023-05-04T00:17:50.994Z,15.23
2023-05-04T00:20:19.098Z,14.75
2023-05-04T00:22:46.331Z,13.27
2023-05-04T00:25:14.105Z,13.48
2023-05-04T00:27:41.546Z,14.73
2023-05-04T00:30:09.697Z,13.93
2023-05-04T00:32:36.855Z,13.80
2023-05-04T00:35:04.745Z,14.48
2023-05-04T00:37:32.228Z,13.73
2023-05-04T00:39:59.941Z,13.82
2023-05-04T00:42:27.226Z,13.30
2023-05-04T00:44:55.142Z,14.00
2023-05-04T00:47:23.223Z,14.45
2023-05-04T00:49:52.430Z,14.20
2023-05-04T00:52:21.009Z,13.75
2023-05-04T00:54:49.079Z,15.18
2023-05-04T00:57:17.226Z,14.75
2023-05-04T00:59:45.001Z,14.70
2023-05-04T01:02:12.245Z,15.23
2023-05-04T01:04:40.050Z,15.90
2023-05-04T01:07:44.556Z,14.27
2023-05-04T01:10:55.498Z,15.50
2023-05-04T01:13:23.074Z,15.50
2023-05-04T01:15:51.161Z,15.52
2023-05-04T01:18:18.512Z,16.02
2023-05-04T01:20:46.376Z,15.77
2023-05-04T01:23:13.716Z,17.48
2023-05-04T01:26:14.837Z,16.73
2023-05-04T01:28:46.675Z,17.38
2023-05-04T01:31:17.313Z,16.00
2023-05-04T01:33:44.953Z,15.90
2023-05-04T01:36:12.630Z,15.88
2023-05-04T01:38:39.966Z,16.00
2023-05-04T01:41:07.658Z,17.13
2023-05-04T01:43:34.967Z,15.65
2023-05-04T01:46:04.608Z,16.20
2023-05-04T01:48:32.814Z,16.35
2023-05-04T01:51:00.475Z,14.82
2023-05-04T01:53:27.889Z,15.68
2023-05-04T01:55:55.593Z,14.77
2023-05-04T01:58:23.195Z,15.32
2023-05-04T02:00:51.044Z,13.32
2023-05-04T02:03:18.345Z,14.57
2023-05-04T02:05:46.880Z,15.07
2023-05-04T02:08:16.487Z,14.13
2023-05-04T02:10:44.134Z,14.45
2023-05-04T02:13:11.484Z,15.63
2023-05-04T02:15:39.141Z,13.98
2023-05-04T02:18:06.654Z,15.60
2023-05-04T02:20:34.290Z,14.23
2023-05-04T02:23:01.512Z,14.55
2023-05-04T02:25:29.270Z,15.02
2023-05-04T02:27:57.070Z,14.82
2023-05-04T02:30:24.663Z,15.82
2023-05-04T02:32:51.974Z,14.95
2023-05-04T02:35:19.690Z,15.13
2023-05-04T02:37:47.002Z,16.00
2023-05-04T02:40:14.797Z,15.55
2023-05-04T02:42:42.039Z,16.02
2023-05-04T02:45:10.031Z,16.80
2023-05-04T02:47:37.649Z,15.77
2023-05-04T02:50:06.340Z,15.95
2023-05-04T02:52:33.982Z,16.80
2023-05-04T02:55:03.045Z,18.55
2023-05-04T02:57:30.827Z,18.17
2023-05-04T02:59:58.795Z,15.57
2023-05-04T03:02:26.321Z,17.05
2023-05-04T03:04:54.173Z,16.70
2023-05-04T03:07:21.606Z,17.85
2023-05-04T03:09:49.955Z,16.55
2023-05-04T03:12:17.412Z,17.17
2023-05-04T03:14:45.194Z,15.73
2023-05-04T03:17:12.536Z,17.02
2023-05-04T03:19:40.523Z,17.90
2023-05-04T03:22:09.191Z,18.73
2023-05-04T03:24:37.961Z,17.40
2023-05-04T03:27:05.282Z,16.20
2023-05-04T03:29:34.264Z,16.98
2023-05-04T03:32:01.739Z,16.33
2023-05-04T03:34:29.497Z,16.98
2023-05-04T03:37:02.331Z,16.27
2023-05-04T03:39:30.042Z,17.00
2023-05-04T03:41:57.796Z,16.42
2023-05-04T03:44:26.674Z,18.02
2023-05-04T03:46:54.506Z,17.15
2023-05-04T03:49:22.641Z,17.38
2023-05-04T03:51:49.899Z,18.02
2023-05-04T03:54:17.562Z,19.60
2023-05-04T03:56:44.955Z,18.88
2023-05-04T03:59:16.991Z,18.27
2023-05-04T04:01:45.049Z,18.95
2023-05-04T04:04:12.874Z,19.38
2023-05-04T04:06:42.700Z,19.65
2023-05-04T04:09:11.113Z,20.40
2023-05-04T04:11:38.471Z,21.38
2023-05-04T04:14:06.600Z,22.15
2023-05-04T04:16:33.972Z,23.48
2023-05-04T04:19:02.295Z,25.67
2023-05-04T04:21:29.851Z,23.42
2023-05-04T04:23:57.841Z,24.65
2023-05-04T04:26:25.192Z,24.77
2023-05-04T04:28:53.177Z,25.38
2023-05-04T04:31:21.100Z,23.05
2023-05-04T04:33:50.850Z,24.92
2023-05-04T04:36:18.473Z,27.73
2023-05-04T04:38:46.475Z,29.58
2023-05-04T04:41:13.972Z,29.00
2023-05-04T04:43:41.538Z,28.30
2023-05-04T04:46:09.708Z,30.35
2023-05-04T04:48:37.999Z,29.33
2023-05-04T04:51:10.281Z,29.30
2023-05-04T04:53:38.711Z,30.40
2023-05-04T04:56:07.545Z,29.65
2023-05-04T04:58:35.206Z,27.65
2023-05-04T05:01:05.073Z,26.35
2023-05-04T05:03:32.892Z,25.63
2023-05-04T05:06:01.885Z,25.73
2023-05-04T05:08:29.513Z,25.45
2023-05-04T05:10:57.097Z,24.77
2023-05-04T05:13:24.948Z,23.95
2023-05-04T05:15:52.253Z,22.67
2023-05-04T05:18:19.677Z,21.00
2023-05-04T05:20:47.166Z,20.67
2023-05-04T05:23:14.935Z,18.92
2023-05-04T05:25:44.085Z,18.55
2023-05-04T05:28:13.826Z,19.25
2023-05-04T05:30:41.275Z,18.63
2023-05-04T05:33:09.144Z,18.38
2023-05-04T05:35:36.651Z,17.42
2023-05-04T05:38:04.197Z,15.38
2023-05-04T05:40:31.549Z,15.07
2023-05-04T05:42:59.225Z,12.65
2023-05-04T05:45:26.619Z,13.23
2023-05-04T05:47:54.258Z,13.20
2023-05-04T05:50:23.531Z,13.75
2023-05-04T05:52:51.379Z,13.60
2023-05-04T05:55:18.662Z,12.00
2023-05-04T05:57:46.387Z,11.95
2023-05-04T06:00:14.251Z,11.43
2023-05-04T06:02:43.063Z,11.27
2023-05-04T06:05:11.006Z,11.25
2023-05-04T06:07:38.631Z,10.02
2023-05-04T06:10:06.367Z,8.90
2023-05-04T06:12:34.516Z,9.23
2023-05-04T06:15:02.512Z,7.90
2023-05-04T06:17:30.148Z,7.28
2023-05-04T06:19:57.379Z,6.65
2023-05-04T06:22:25.159Z,7.05
2023-05-04T06:24:55.678Z,6.28
2023-05-04T06:27:26.043Z,7.03
2023-05-04T06:29:53.479Z,6.38
2023-05-04T06:32:21.084Z,6.57
2023-05-04T06:34:48.310Z,6.82
2023-05-04T06:37:16.235Z,6.53
2023-05-04T06:39:43.441Z,5.35
2023-05-04T06:42:12.347Z,5.63
2023-05-04T06:44:41.630Z,5.47
2023-05-04T06:47:09.199Z,4.45
2023-05-04T06:49:36.458Z,4.38
2023-05-04T06:52:04.247Z,4.78
2023-05-04T06:54:32.722Z,4.90
2023-05-04T06:57:03.676Z,6.10
2023-05-04T06:59:30.919Z,5.85
2023-05-04T07:01:58.496Z,5.22
2023-05-04T07:04:26.012Z,5.38
2023-05-04T07:06:53.746Z,5.57
2023-05-04T07:09:21.116Z,5.28
2023-05-04T07:11:48.845Z,6.03
2023-05-04T07:14:16.494Z,4.60
2023-05-04T07:16:44.220Z,4.32
2023-05-04T07:19:11.734Z,4.38
2023-05-04T07:21:39.585Z,5.03
2023-05-04T07:24:07.565Z,5.88
2023-05-04T07:26:35.106Z,5.00
2023-05-04T07:29:02.433Z,5.22
2023-05-04T07:31:30.932Z,5.07
2023-05-04T07:33:58.279Z,5.00
2023-05-04T07:36:26.838Z,5.32
2023-05-04T07:38:54.592Z,4.88
2023-05-04T07:41:22.538Z,4.93
2023-05-04T07:43:49.906Z,5.05
2023-05-04T07:46:17.523Z,5.15
2023-05-04T07:48:44.831Z,5.05
2023-05-04T07:51:16.554Z,4.50
2023-05-04T07:53:44.057Z,4.60
2023-05-04T07:56:12.917Z,3.83
2023-05-04T07:58:40.602Z,4.15
2023-05-04T08:01:08.594Z,3.63
2023-05-04T08:03:36.628Z,3.40
2023-05-04T08:06:04.261Z,3.17
2023-05-04T08:08:31.656Z,3.20
2023-05-04T08:11:11.961Z,2.83
2023-05-04T08:13:47.919Z,2.53
2023-05-04T08:16:15.785Z,2.60
2023-05-04T08:18:43.622Z,2.85
2023-05-04T08:21:11.162Z,2.30
2023-05-04T08:23:38.624Z,2.10
2023-05-04T08:26:06.276Z,1.80
2023-05-04T08:28:37.919Z,2.60
2023-05-04T08:31:06.766Z,2.10
2023-05-04T08:33:34.530Z,2.08
2023-05-04T08:36:03.254Z,3.00
2023-05-04T08:38:30.855Z,1.70
2023-05-04T08:40:58.448Z,2.35
2023-05-04T08:43:25.785Z,4.60
2023-05-04T08:45:53.181Z,2.08
2023-05-04T08:48:20.533Z,2.60
2023-05-04T08:50:48.669Z,2.30
2023-05-04T08:53:19.372Z,3.03
2023-05-04T08:55:47.833Z,2.22
2023-05-04T08:58:17.566Z,2.75
2023-05-04T09:00:45.972Z,2.90
2023-05-04T09:03:13.960Z,2.78
2023-05-04T09:05:46.319Z,2.40
2023-05-04T09:08:14.140Z,2.78
2023-05-04T09:10:41.873Z,2.58
2023-05-04T09:13:09.336Z,2.78
2023-05-04T09:15:37.951Z,2.40
2023-05-04T09:18:06.756Z,2.65
2023-05-04T09:20:47.954Z,2.30
2023-05-04T09:23:18.109Z,2.30
2023-05-04T09:25:50.239Z,2.15
2023-05-04T09:28:18.698Z,2.00
2023-05-04T09:30:48.486Z,1.90
2023-05-04T09:33:16.557Z,2.15
2023-05-04T09:35:47.233Z,1.98
2023-05-04T09:38:28.543Z,2.45
2023-05-04T09:40:56.357Z,2.08
2023-05-04T09:43:24.727Z,2.70
2023-05-04T09:45:52.380Z,2.03
2023-05-04T09:48:21.430Z,2.38
2023-05-04T09:50:53.922Z,2.20
2023-05-04T09:53:28.730Z,1.93
2023-05-04T09:56:16.343Z,2.10
2023-05-04T09:58:44.136Z,2.10
2023-05-04T10:01:12.068Z,2.25
2023-05-04T10:03:40.110Z,2.40
2023-05-04T10:06:09.270Z,2.33
2023-05-04T10:08:38.282Z,2.30
2023-05-04T10:11:06.072Z,2.17
2023-05-04T10:13:33.519Z,2.45
2023-05-04T10:16:25.087Z,2.00
2023-05-04T10:19:16.727Z,2.20
2023-05-04T10:22:30.834Z,1.95
2023-05-04T10:25:22.810Z,2.53
2023-05-04T10:28:09.192Z,2.35
2023-05-04T10:30:36.786Z,2.40
2023-05-04T10:33:05.066Z,2.38
2023-05-04T10:35:32.836Z,2.67
2023-05-04T10:38:01.161Z,3.47
2023-05-04T10:40:37.716Z,2.15
2023-05-04T10:43:07.068Z,2.42
2023-05-04T10:45:36.064Z,2.80
2023-05-04T10:48:05.357Z,2.30
2023-05-04T10:50:51.556Z,2.60
2023-05-04T10:53:19.311Z,2.85
2023-05-04T10:55:47.930Z,2.35
2023-05-04T10:58:21.546Z,2.40
2023-05-04T11:00:51.916Z,2.53
2023-05-04T11:03:22.439Z,2.70
2023-05-04T11:05:52.427Z,2.50
2023-05-04T11:08:24.917Z,2.33
2023-05-04T11:11:07.051Z,2.47
2023-05-04T11:13:35.545Z,2.47
2023-05-04T11:16:03.099Z,2.45
2023-05-04T11:18:32.516Z,3.08
2023-05-04T11:21:00.144Z,2.53
2023-05-04T11:23:28.401Z,2.25
2023-05-04T11:25:56.665Z,2.60
2023-05-04T11:28:37.547Z,2.45
2023-05-04T11:31:18.786Z,2.80
2023-05-04T11:33:48.367Z,2.97
2023-05-04T11:36:16.099Z,3.80
2023-05-04T11:38:43.986Z,2.90
2023-05-04T11:41:12.350Z,2.83
2023-05-04T11:43:42.418Z,2.63
2023-05-04T11:46:10.114Z,2.67
2023-05-04T11:48:39.874Z,2.70
2023-05-04T11:51:07.632Z,2.67
2023-05-04T11:53:39.581Z,2.38
2023-05-04T11:56:11.147Z,2.92
2023-05-04T11:58:38.858Z,2.40
2023-05-04T12:01:06.237Z,2.70
2023-05-04T12:03:52.174Z,2.80
2023-05-04T12:06:31.466Z,3.03
2023-05-04T12:09:04.727Z,2.92
2023-05-04T12:11:32.423Z,3.20
2023-05-04T12:14:04.351Z,3.03
2023-05-04T12:16:31.791Z,2.80
2023-05-04T12:19:11.468Z,2.85
2023-05-04T12:21:50.045Z,2.60
2023-05-04T12:24:17.934Z,2.80
2023-05-04T12:26:45.159Z,2.63
2023-05-04T12:29:12.931Z,2.70
2023-05-04T12:31:40.334Z,2.35
2023-05-04T12:34:08.130Z,2.65
2023-05-04T12:36:35.449Z,2.72
2023-05-04T12:39:03.919Z,2.45
2023-05-04T12:41:31.730Z,2.70
2023-05-04T12:43:59.584Z,2.70
2023-05-04T12:46:26.888Z,2.75
2023-05-04T12:48:54.688Z,2.78
2023-05-04T12:51:21.927Z,2.50
2023-05-04T12:53:49.665Z,2.72
2023-05-04T12:56:17.180Z,2.97
2023-05-04T12:58:44.860Z,3.17
2023-05-04T13:01:12.195Z,3.45
2023-05-04T13:03:40.403Z,4.72
2023-05-04T13:06:07.926Z,2.28
2023-05-04T13:08:35.723Z,2.90
2023-05-04T13:11:03.309Z,2.80
2023-05-04T13:13:31.017Z,3.55
2023-05-04T13:15:58.505Z,3.40
2023-05-04T13:18:27.767Z,2.90
2023-05-04T13:20:56.135Z,2.83
2023-05-04T13:23:24.254Z,2.65
2023-05-04T13:25:52.012Z,2.75
2023-05-04T13:28:19.681Z,2.60
2023-05-04T13:30:46.976Z,2.80
2023-05-04T13:33:27.852Z,2.58
2023-05-04T13:35:58.457Z,2.65
2023-05-04T13:38:26.534Z,3.00
2023-05-04T13:40:54.689Z,3.05
2023-05-04T13:43:22.584Z,3.30
2023-05-04T13:45:49.933Z,3.42
2023-05-04T13:48:18.228Z,3.42
2023-05-04T13:50:45.546Z,3.10
2023-05-04T13:53:13.206Z,3.42
2023-05-04T13:55:40.581Z,3.88
2023-05-04T13:58:08.372Z,3.08
2023-05-04T14:00:36.067Z,2.90
2023-05-04T14:03:03.926Z,3.47
2023-05-04T14:05:32.952Z,3.38
2023-05-04T14:08:02.149Z,3.30
2023-05-04T14:10:30.576Z,3.55
2023-05-04T14:12:58.763Z,3.10
2023-05-04T14:15:27.693Z,3.35
2023-05-04T14:17:55.438Z,2.80
2023-05-04T14:20:22.941Z,3.03
2023-05-04T14:22:50.769Z,2.80
2023-05-04T14:25:18.385Z,2.97
2023-05-04T14:27:46.085Z,3.28
2023-05-04T14:30:14.024Z,3.05
2023-05-04T14:32:41.756Z,3.08
2023-05-04T14:35:10.805Z,2.95
2023-05-04T14:37:40.160Z,3.20
2023-05-04T14:40:09.091Z,2.88
2023-05-04T14:42:37.492Z,3.20
2023-05-04T14:45:06.553Z,2.92
2023-05-04T14:47:34.851Z,2.92
2023-05-04T14:50:02.505Z,3.13
2023-05-04T14:52:30.097Z,2.58
2023-05-04T14:54:58.709Z,2.58
2023-05-04T14:57:26.385Z,2.88
2023-05-04T14:59:53.813Z,3.10
2023-05-04T15:02:21.413Z,3.30
2023-05-04T15:04:49.416Z,2.70
2023-05-04T15:07:18.893Z,3.20
2023-05-04T15:09:46.841Z,3.42
2023-05-04T15:12:14.574Z,3.33
2023-05-04T15:14:42.087Z,3.55
2023-05-04T15:17:09.993Z,4.25
2023-05-04T15:19:38.569Z,2.90
2023-05-04T15:22:06.714Z,2.90
2023-05-04T15:24:34.068Z,2.97
2023-05-04T15:27:02.286Z,4.75
2023-05-04T15:29:29.855Z,4.00
2023-05-04T15:31:57.717Z,3.10
2023-05-04T15:34:24.902Z,3.03
2023-05-04T15:36:52.867Z,2.33
2023-05-04T15:39:20.360Z,2.10
2023-05-04T15:41:48.083Z,2.25
2023-05-04T15:44:15.465Z,2.22
2023-05-04T15:46:43.323Z,2.50
2023-05-04T15:49:10.700Z,2.38
2023-05-04T15:51:38.545Z,2.60
2023-05-04T15:54:05.984Z,3.13
2023-05-04T15:56:33.588Z,3.22
2023-05-04T15:59:01.025Z,2.30
2023-05-04T16:01:28.734Z,2.42
2023-05-04T16:03:56.835Z,3.25
2023-05-04T16:06:24.463Z,3.47
2023-05-04T16:08:51.983Z,2.13
2023-05-04T16:11:19.746Z,4.15
2023-05-04T16:13:47.470Z,2.60
2023-05-04T16:16:15.072Z,2.80
2023-05-04T16:18:42.445Z,2.35
2023-05-04T16:21:10.484Z,2.38
2023-05-04T16:23:37.840Z,3.25
2023-05-04T16:26:05.491Z,2.25
2023-05-04T16:28:32.962Z,2.55
2023-05-04T16:31:00.631Z,4.00
2023-05-04T16:33:27.908Z,2.70
2023-05-04T16:35:55.590Z,4.25
2023-05-04T16:38:23.002Z,1.98
2023-05-04T16:40:50.791Z,2.40
2023-05-04T16:43:18.179Z,2.03
2023-05-04T16:45:46.162Z,2.50
2023-05-04T16:48:13.640Z,2.95
2023-05-04T16:50:41.212Z,2.50
2023-05-04T16:53:08.643Z,2.25
2023-05-04T16:55:36.416Z,2.20
2023-05-04T16:58:03.699Z,2.35
2023-05-04T17:00:31.983Z,2.30
2023-05-04T17:02:59.420Z,2.30
2023-05-04T17:05:27.036Z,2.67
2023-05-04T17:07:54.266Z,1.92
2023-05-04T17:10:22.051Z,2.00
2023-05-04T17:12:53.506Z,2.47
2023-05-04T17:15:21.495Z,2.50
2023-05-04T17:17:48.879Z,2.35
2023-05-04T17:20:16.649Z,2.47
2023-05-04T17:22:44.750Z,2.25
2023-05-04T17:25:12.825Z,2.17
2023-05-04T17:27:40.357Z,2.25
2023-05-04T17:30:08.757Z,2.13
2023-05-04T17:32:37.573Z,2.05
2023-05-04T17:35:20.240Z,2.55
2023-05-04T17:37:54.458Z,2.72
2023-05-04T17:40:24.194Z,2.58
2023-05-04T17:42:51.413Z,1.80
2023-05-04T17:45:22.232Z,2.10
2023-05-04T17:47:51.244Z,2.10
2023-05-04T17:50:19.211Z,2.55
2023-05-04T17:52:51.739Z,2.40
2023-05-04T17:55:19.497Z,2.22
2023-05-04T17:57:46.761Z,2.97
2023-05-04T18:00:14.592Z,3.03
2023-05-04T18:02:42.138Z,3.42
2023-05-04T18:05:10.110Z,2.63
2023-05-04T18:07:37.392Z,2.88
2023-05-04T18:10:05.369Z,2.97
2023-05-04T18:12:33.634Z,2.95
2023-05-04T18:15:02.164Z,2.80
2023-05-04T18:17:29.919Z,3.10
2023-05-04T18:19:57.566Z,4.00
2023-05-04T18:22:24.862Z,3.25
2023-05-04T18:24:52.914Z,3.92
2023-05-04T18:27:20.389Z,3.75
2023-05-04T18:29:48.766Z,3.85
2023-05-04T18:32:16.207Z,3.80
2023-05-04T18:34:47.895Z,4.03
2023-05-04T18:37:15.131Z,4.00
2023-05-04T18:39:42.597Z,4.15
2023-05-04T18:42:09.803Z,4.65
2023-05-04T18:44:37.256Z,4.00
2023-05-04T18:47:04.825Z,4.63
2023-05-04T18:49:32.508Z,4.32
2023-05-04T18:52:01.392Z,5.05
2023-05-04T18:54:32.548Z,4.60
2023-05-04T18:56:59.986Z,4.70
2023-05-04T18:59:27.761Z,4.22
2023-05-04T19:01:56.601Z,4.95
2023-05-04T19:04:24.252Z,4.10
2023-05-04T19:06:53.643Z,5.35
2023-05-04T19:09:21.444Z,4.07
2023-05-04T19:11:48.903Z,4.10
2023-05-04T19:14:16.800Z,6.05
2023-05-04T19:16:44.159Z,5.20
2023-05-04T19:19:12.013Z,5.00
2023-05-04T19:21:39.609Z,4.80
2023-05-04T19:24:07.873Z,6.18
2023-05-04T19:26:35.296Z,6.13
2023-05-04T19:29:03.145Z,6.82
2023-05-04T19:31:30.618Z,5.22
2023-05-04T19:33:58.455Z,6.03
2023-05-04T19:36:25.978Z,6.80
2023-05-04T19:38:53.792Z,6.85
2023-05-04T19:41:21.095Z,6.65
2023-05-04T19:43:48.781Z,7.40
2023-05-04T19:46:16.172Z,5.90
2023-05-04T19:48:43.953Z,6.10
2023-05-04T19:51:11.347Z,5.88
2023-05-04T19:53:39.088Z,5.70
2023-05-04T19:56:06.510Z,6.00
2023-05-04T19:58:34.162Z,6.30
2023-05-04T20:01:01.572Z,5.80
2023-05-04T20:03:29.296Z,6.47
2023-05-04T20:05:56.647Z,7.18
2023-05-04T20:08:24.394Z,6.30
2023-05-04T20:10:51.857Z,6.30
2023-05-04T20:13:19.729Z,7.47
2023-05-04T20:15:47.015Z,7.43
2023-05-04T20:18:15.010Z,6.68
2023-05-04T20:20:42.576Z,6.32
2023-05-04T20:23:10.525Z,6.35
2023-05-04T20:25:37.764Z,6.68
2023-05-04T20:28:05.567Z,6.65
2023-05-04T20:30:33.057Z,6.97
2023-05-04T20:33:01.443Z,6.45
2023-05-04T20:35:28.847Z,6.93
2023-05-04T20:37:56.861Z,6.88
2023-05-04T20:40:24.907Z,6.53
2023-05-04T20:42:52.765Z,6.72
2023-05-04T20:45:20.170Z,6.80
2023-05-04T20:47:48.647Z,6.70
2023-05-04T20:50:18.229Z,6.57
2023-05-04T20:52:46.227Z,6.55
2023-05-04T20:55:14.604Z,6.55
2023-05-04T20:57:42.542Z,6.95
2023-05-04T21:00:11.181Z,6.32
2023-05-04T21:02:39.043Z,6.88
2023-05-04T21:05:07.206Z,6.55
2023-05-04T21:07:35.001Z,7.00
2023-05-04T21:10:02.291Z,7.20
2023-05-04T21:12:29.965Z,6.95
2023-05-04T21:14:57.383Z,6.65
2023-05-04T21:17:25.955Z,7.15
2023-05-04T21:19:53.282Z,8.18
2023-05-04T21:22:21.339Z,7.00
2023-05-04T21:24:48.667Z,7.50
2023-05-04T21:27:16.319Z,7.15
2023-05-04T21:29:43.566Z,7.57
2023-05-04T21:32:11.316Z,7.72
2023-05-04T21:34:38.607Z,6.75
2023-05-04T21:37:06.234Z,8.02
2023-05-04T21:39:33.735Z,7.53
2023-05-04T21:42:02.616Z,7.90
2023-05-04T21:44:30.001Z,7.75
2023-05-04T21:46:58.185Z,7.32
2023-05-04T21:49:25.690Z,7.95
2023-05-04T21:51:53.899Z,9.00
2023-05-04T21:54:23.768Z,7.80
2023-05-04T21:56:51.510Z,7.88
2023-05-04T21:59:19.007Z,8.68
2023-05-04T22:01:47.315Z,8.32
2023-05-04T22:04:14.668Z,8.38
2023-05-04T22:06:42.459Z,8.43
2023-05-04T22:09:09.745Z,8.73
2023-05-04T22:11:37.460Z,9.27
2023-05-04T22:14:04.892Z,8.60
2023-05-04T22:16:32.674Z,8.90
2023-05-04T22:19:00.070Z,8.68
2023-05-04T22:21:28.053Z,8.57
2023-05-04T22:23:55.420Z,8.55
2023-05-04T22:26:23.032Z,8.95
2023-05-04T22:28:50.497Z,8.75
2023-05-04T22:31:18.192Z,10.48
2023-05-04T22:33:45.838Z,8.60
2023-05-04T22:36:13.513Z,10.02
2023-05-04T22:38:40.842Z,8.73
2023-05-04T22:41:08.506Z,9.15
2023-05-04T22:43:36.426Z,9.25
2023-05-04T22:46:03.998Z,9.25
2023-05-04T22:48:32.797Z,9.50
2023-05-04T22:51:01.367Z,9.95
2023-05-04T22:53:28.641Z,9.57
2023-05-04T22:55:56.627Z,9.93
2023-05-04T22:58:24.096Z,9.68
2023-05-04T23:00:51.962Z,10.50
2023-05-04T23:03:19.491Z,10.68
2023-05-04T23:05:47.936Z,10.57
2023-05-04T23:08:15.319Z,10.70
2023-05-04T23:10:46.556Z,10.43
2023-05-04T23:13:14.067Z,9.95
2023-05-04T23:15:41.922Z,10.13
2023-05-04T23:18:09.261Z,9.88
2023-05-04T23:20:37.001Z,10.30
2023-05-04T23:23:04.458Z,10.35
2023-05-04T23:25:32.177Z,9.85
2023-05-04T23:27:59.558Z,9.38
2023-05-04T23:30:27.016Z,9.63
2023-05-04T23:32:54.242Z,9.98
2023-05-04T23:35:22.347Z,9.75
2023-05-04T23:37:49.729Z,10.13
2023-05-04T23:40:17.441Z,10.35
2023-05-04T23:42:46.800Z,11.43
2023-05-04T23:45:14.660Z,10.38
2023-05-04T23:47:42.293Z,10.45
2023-05-04T23:50:10.557Z,10.18
2023-05-04T23:52:38.156Z,10.38
2023-05-04T23:55:06.802Z,10.73
2023-05-04T23:57:34.178Z,10.20
